aviador You're here:

KDBQ Decoded Metar

DUBUQUE in IA, USA
Report Time2017-12-16 23:53:00
UTC Time2017-12-17 00:35:33
Flight Rules vfr VFR
Wind040° at 05 kt
W.Decomp.*RWY 36: 4.0 kt HW 3.0 kt RCW
RWY 31: 0.3 kt HW 5.0 kt RCW
W.Rank040° ranks 14
Current wind is below 040° avg. (7.7)
Visibility9999 m
Phenomena:N/A
Clouds:N/A
Expected CloudBase > 1,600 ft AGL from Temp-Dew spread
CeilingNone
Temp01°C (ISA -12)
Dew Point-3°C (75% RH)
AAT-3.2°C
QNH1014 hPa
Density Alt-328 ft
Elevation1,077 ft
Report Wrong Elevation
Raw Report
METAR KDBQ 162353Z 04005KT 10SM CLR 01/M03 A2995 RMK AO2 SLP156 T00111033
10078 20000 51028=

Extra information for KDBQ:More info

Metar Taf Metar & Taf Last 4 Metars F.Rules Stats Wind Profile Meteogram Temp Stats Airport Information Weather charts Add Link Nearby VenuesMetar ALERT Operation Metar Decoded Social comments

AIRNAV info for KDBQ